Time;durP1;ratioP1;P1;durP2;ratioP2;P2;SDS_P1;SDS_P2;PMS_P1;PMS_P2;Temp;Humidity;BMP_temperature;BMP_pressure;BME280_temperature;BME280_humidity;BME280_pressure;Samples;Min_cycle;Max_cycle;Signal;HPM_P1;HPM_P2
2023/06/17 00:00:27;;;;;;;;;;;16.00;99.90;;;;;;4996281;28;19917;-81
2023/06/17 00:02:53;;;;;;;;;;;16.00;99.90;;;;;;5011389;28;19910;-82
2023/06/17 00:05:20;;;;;;;;;;;16.00;99.90;;;;;;5008513;28;20268;-81
2023/06/17 00:07:46;;;;;;;;;;;16.00;99.90;;;;;;4996159;28;19909;-83
2023/06/17 00:10:12;;;;;;;;;;;15.90;99.90;;;;;;5003218;28;20377;-82
2023/06/17 00:12:38;;;;;;;;;;;15.90;99.90;;;;;;5010691;28;20347;-82
2023/06/17 00:15:07;;;;;;;;;;;15.80;99.90;;;;;;5001530;28;19920;-82
2023/06/17 00:17:33;;;;;;;;;;;15.70;99.90;;;;;;4994355;28;19910;-81
2023/06/17 00:20:08;;;;;;;;;;;15.70;99.90;;;;;;4993078;28;20004;-82
2023/06/17 00:22:35;;;;;;;;;;;15.50;99.90;;;;;;4997445;28;19910;-82
2023/06/17 00:25:02;;;;;;;;;;;15.20;99.90;;;;;;5006217;28;20078;-82
2023/06/17 00:27:28;;;;;;;;;;;15.00;99.90;;;;;;5003502;28;19916;-82
2023/06/17 00:29:54;;;;;;;;;;;14.90;1.00;;;;;;5007709;28;19944;-82
2023/06/17 00:32:20;;;;;;;;;;;14.80;1.00;;;;;;5012306;28;19921;-82
2023/06/17 00:34:46;;;;;;;;;;;14.70;1.00;;;;;;5012930;28;19917;-85
2023/06/17 00:37:12;;;;;;;;;;;14.70;1.00;;;;;;4994461;28;19922;-82
2023/06/17 00:39:38;;;;;;;;;;;14.70;1.00;;;;;;4998692;28;19916;-82
2023/06/17 00:42:04;;;;;;;;;;;14.50;1.00;;;;;;4993610;28;19913;-81
2023/06/17 00:44:30;;;;;;;;;;;14.50;1.00;;;;;;5004355;28;19916;-82
2023/06/17 00:46:56;;;;;;;;;;;14.40;1.00;;;;;;5012656;28;19988;-81
2023/06/17 00:49:27;;;;;;;;;;;14.40;1.00;;;;;;4999595;28;19933;-81
2023/06/17 00:51:53;;;;;;;;;;;14.50;1.00;;;;;;5014575;28;19920;-81
2023/06/17 00:54:19;;;;;;;;;;;14.40;1.00;;;;;;5000284;28;19969;-81
2023/06/17 00:56:45;;;;;;;;;;;14.20;1.00;;;;;;5010045;28;19955;-85
2023/06/17 00:59:11;;;;;;;;;;;14.10;1.00;;;;;;4998135;28;19913;-81
2023/06/17 01:01:37;;;;;;;;;;;14.00;1.00;;;;;;5000952;28;19910;-81
2023/06/17 01:04:04;;;;;;;;;;;13.90;1.00;;;;;;4996346;28;19929;-82
2023/06/17 01:06:50;;;;;;;;;;;13.90;1.00;;;;;;5010318;28;19906;-80
2023/06/17 01:09:19;;;;;;;;;;;14.00;1.00;;;;;;5003984;28;19909;-81
2023/06/17 01:11:46;;;;;;;;;;;14.00;1.00;;;;;;4992552;28;19922;-86
2023/06/17 01:14:13;;;;;;;;;;;14.00;1.00;;;;;;5007246;28;19925;-82
2023/06/17 01:16:43;;;;;;;;;;;13.90;1.00;;;;;;5009336;28;20278;-81
2023/06/17 01:19:18;;;;;;;;;;;13.80;1.00;;;;;;5009908;28;20386;-81
2023/06/17 01:21:48;;;;;;;;;;;13.90;1.00;;;;;;5004593;28;19916;-81
2023/06/17 01:24:29;;;;;;;;;;;14.10;1.00;;;;;;5006735;28;19916;-82
2023/06/17 01:26:57;;;;;;;;;;;14.10;1.00;;;;;;4996699;28;19916;-81
2023/06/17 01:29:23;;;;;;;;;;;14.00;1.00;;;;;;5010458;28;19909;-82
2023/06/17 01:31:50;;;;;;;;;;;14.00;1.00;;;;;;5003932;28;19910;-83
2023/06/17 01:34:19;;;;;;;;;;;13.90;1.00;;;;;;5003168;28;20397;-81
2023/06/17 01:36:46;;;;;;;;;;;13.80;1.00;;;;;;4999658;28;19925;-83
2023/06/17 01:39:15;;;;;;;;;;;13.70;1.00;;;;;;5011204;28;19913;-82
2023/06/17 01:41:45;;;;;;;;;;;13.70;1.00;;;;;;5013791;28;19909;-82
2023/06/17 01:44:12;;;;;;;;;;;13.60;1.00;;;;;;5005492;28;19909;-82
2023/06/17 01:46:38;;;;;;;;;;;13.30;1.00;;;;;;5008373;28;19909;-81
2023/06/17 01:49:04;;;;;;;;;;;13.20;1.00;;;;;;5009576;28;19916;-82
2023/06/17 01:51:30;;;;;;;;;;;13.10;1.00;;;;;;4995919;28;19917;-82
2023/06/17 01:53:56;;;;;;;;;;;13.00;1.00;;;;;;5010012;28;19917;-81
2023/06/17 01:56:22;;;;;;;;;;;12.90;1.00;;;;;;4978068;28;20517;-81
2023/06/17 01:58:48;;;;;;;;;;;12.80;1.00;;;;;;4990330;28;19910;-85
2023/06/17 02:01:14;;;;;;;;;;;12.60;10.10;;;;;;5010640;28;19913;-81
2023/06/17 02:03:42;;;;;;;;;;;12.60;16.40;;;;;;5003871;28;19916;-82
2023/06/17 02:06:09;;;;;;;;;;;12.50;17.80;;;;;;5000671;28;20327;-82
2023/06/17 02:08:35;;;;;;;;;;;12.50;20.70;;;;;;5009158;28;19913;-82
2023/06/17 02:11:02;;;;;;;;;;;12.50;18.90;;;;;;5007800;28;19910;-79
2023/06/17 02:13:28;;;;;;;;;;;12.70;15.30;;;;;;4995631;28;19933;-80
2023/06/17 02:15:54;;;;;;;;;;;12.90;1.00;;;;;;4990968;28;19918;-81
2023/06/17 02:18:20;;;;;;;;;;;12.90;1.00;;;;;;5002060;28;19917;-81
2023/06/17 02:20:46;;;;;;;;;;;12.90;1.00;;;;;;4994095;28;20296;-81
2023/06/17 02:23:11;;;;;;;;;;;13.00;1.00;;;;;;5014769;28;19914;-81
2023/06/17 02:25:39;;;;;;;;;;;13.00;1.00;;;;;;5003183;28;20378;-81
2023/06/17 02:28:06;;;;;;;;;;;12.90;1.00;;;;;;5013054;28;19924;-81
2023/06/17 02:30:32;;;;;;;;;;;12.90;1.00;;;;;;4989077;28;19937;-81
2023/06/17 02:32:58;;;;;;;;;;;13.00;1.00;;;;;;4988365;28;19928;-81
2023/06/17 02:35:24;;;;;;;;;;;13.00;1.00;;;;;;5009195;28;19910;-80
2023/06/17 02:37:50;;;;;;;;;;;13.00;1.00;;;;;;4984018;28;20390;-84
2023/06/17 02:40:16;;;;;;;;;;;13.00;1.00;;;;;;5004296;28;20267;-81
2023/06/17 02:42:42;;;;;;;;;;;12.80;1.00;;;;;;4994994;28;19914;-81
2023/06/17 02:45:11;;;;;;;;;;;12.70;1.00;;;;;;5008115;28;19916;-81
2023/06/17 02:47:37;;;;;;;;;;;12.70;1.00;;;;;;4994087;28;19933;-83
2023/06/17 02:50:05;;;;;;;;;;;12.60;1.00;;;;;;4992564;28;20260;-81
2023/06/17 02:52:34;;;;;;;;;;;12.40;1.90;;;;;;4992807;28;20084;-81
2023/06/17 02:55:01;;;;;;;;;;;12.40;15.70;;;;;;5007926;28;20385;-81
2023/06/17 02:57:27;;;;;;;;;;;12.20;19.80;;;;;;5002165;28;19909;-81
2023/06/17 02:59:53;;;;;;;;;;;12.30;33.20;;;;;;4995619;28;19914;-83
2023/06/17 03:02:19;;;;;;;;;;;12.20;31.60;;;;;;5009018;28;19917;-81
2023/06/17 03:04:45;;;;;;;;;;;12.10;44.00;;;;;;5011265;28;19920;-81
2023/06/17 03:07:12;;;;;;;;;;;12.30;52.90;;;;;;4997548;28;19905;-81
2023/06/17 03:09:38;;;;;;;;;;;12.40;45.40;;;;;;4998959;28;19913;-82
2023/06/17 03:12:05;;;;;;;;;;;12.50;24.80;;;;;;4997928;28;19925;-81
2023/06/17 03:14:32;;;;;;;;;;;12.40;17.40;;;;;;5015421;28;20286;-81
2023/06/17 03:17:00;;;;;;;;;;;12.30;20.80;;;;;;4991660;28;20013;-80
2023/06/17 03:19:28;;;;;;;;;;;12.30;23.60;;;;;;5007930;28;19909;-81
2023/06/17 03:21:54;;;;;;;;;;;12.40;27.70;;;;;;5008294;28;19913;-86
2023/06/17 03:24:23;;;;;;;;;;;12.40;27.50;;;;;;4992919;28;19914;-81
2023/06/17 03:26:49;;;;;;;;;;;12.50;13.80;;;;;;4998226;28;19910;-82
2023/06/17 03:29:16;;;;;;;;;;;12.50;7.40;;;;;;4989611;28;20362;-81
2023/06/17 03:31:42;;;;;;;;;;;12.50;12.50;;;;;;5003784;28;19914;-81
2023/06/17 03:34:09;;;;;;;;;;;12.70;4.10;;;;;;4995368;28;20350;-81
2023/06/17 03:36:36;;;;;;;;;;;12.60;1.00;;;;;;5008141;28;19917;-81
2023/06/17 03:39:03;;;;;;;;;;;12.50;1.00;;;;;;5003699;28;19909;-81
2023/06/17 03:41:32;;;;;;;;;;;12.50;1.90;;;;;;5015528;28;19913;-80
2023/06/17 03:44:00;;;;;;;;;;;12.30;14.50;;;;;;5012553;28;19909;-81
2023/06/17 03:46:26;;;;;;;;;;;12.00;42.30;;;;;;4993317;28;20354;-81
2023/06/17 03:48:53;;;;;;;;;;;11.90;55.80;;;;;;5003807;28;19906;-85
2023/06/17 03:51:19;;;;;;;;;;;11.90;59.60;;;;;;5003743;28;20282;-80
2023/06/17 03:53:46;;;;;;;;;;;12.00;66.30;;;;;;5011926;28;19921;-80
2023/06/17 03:56:13;;;;;;;;;;;12.10;61.10;;;;;;5011267;28;20424;-81
2023/06/17 03:58:40;;;;;;;;;;;12.10;53.60;;;;;;5001791;28;19910;-80
2023/06/17 04:01:12;;;;;;;;;;;12.20;61.00;;;;;;5001608;28;19909;-81
2023/06/17 04:03:40;;;;;;;;;;;12.30;46.10;;;;;;5001914;28;19914;-81
2023/06/17 04:06:06;;;;;;;;;;;12.40;32.90;;;;;;4988649;28;19906;-81
2023/06/17 04:08:33;;;;;;;;;;;12.60;40.50;;;;;;4994850;28;19913;-80
2023/06/17 04:10:59;;;;;;;;;;;12.70;12.40;;;;;;5010167;28;19909;-81
2023/06/17 04:13:25;;;;;;;;;;;12.70;5.80;;;;;;5001398;28;19914;-81
2023/06/17 04:15:52;;;;;;;;;;;12.80;1.00;;;;;;4985589;28;19917;-81
2023/06/17 04:18:18;;;;;;;;;;;13.00;1.00;;;;;;4994603;28;19913;-81
2023/06/17 04:20:44;;;;;;;;;;;13.50;1.00;;;;;;5009317;28;19916;-81
2023/06/17 04:23:10;;;;;;;;;;;14.10;1.00;;;;;;5006622;28;19909;-81
2023/06/17 04:25:36;;;;;;;;;;;14.80;1.00;;;;;;4984629;28;19917;-86
2023/06/17 04:28:06;;;;;;;;;;;15.10;1.00;;;;;;5008486;28;19913;-81
2023/06/17 04:30:34;;;;;;;;;;;15.10;1.00;;;;;;5015434;28;19919;-82
2023/06/17 04:33:01;;;;;;;;;;;15.60;1.00;;;;;;4989238;28;20286;-81
2023/06/17 04:35:28;;;;;;;;;;;16.50;99.90;;;;;;5008357;28;19910;-82
2023/06/17 04:37:55;;;;;;;;;;;17.10;99.90;;;;;;4971631;28;19918;-86
2023/06/17 04:40:22;;;;;;;;;;;17.20;99.90;;;;;;4989562;28;19910;-82
2023/06/17 04:42:48;;;;;;;;;;;17.10;99.90;;;;;;4979361;28;20271;-83
2023/06/17 04:45:17;;;;;;;;;;;17.70;99.90;;;;;;5008560;28;19917;-82
2023/06/17 04:47:46;;;;;;;;;;;17.50;99.90;;;;;;4999646;28;20252;-82
2023/06/17 04:50:16;;;;;;;;;;;17.50;99.90;;;;;;5005161;28;19917;-82
2023/06/17 04:52:44;;;;;;;;;;;17.30;99.90;;;;;;5004123;28;19914;-82
2023/06/17 04:55:13;;;;;;;;;;;17.40;99.90;;;;;;5002901;28;19920;-83
2023/06/17 04:57:41;;;;;;;;;;;18.40;99.90;;;;;;5012835;28;19909;-81
2023/06/17 05:00:10;;;;;;;;;;;18.20;99.90;;;;;;4992525;28;19917;-82
2023/06/17 05:02:37;;;;;;;;;;;18.70;99.90;;;;;;4975270;28;20286;-82
2023/06/17 05:05:06;;;;;;;;;;;19.20;99.90;;;;;;5008664;28;19916;-83
2023/06/17 05:07:34;;;;;;;;;;;19.20;99.90;;;;;;4999055;28;19909;-80
2023/06/17 05:10:00;;;;;;;;;;;19.70;99.90;;;;;;5013397;28;19910;-82
2023/06/17 05:12:27;;;;;;;;;;;20.50;99.90;;;;;;5009925;28;20271;-83
2023/06/17 05:14:53;;;;;;;;;;;20.70;99.90;;;;;;4991327;28;19918;-80
2023/06/17 05:17:19;;;;;;;;;;;21.10;99.90;;;;;;5022048;28;20374;-80
2023/06/17 05:19:45;;;;;;;;;;;21.10;99.90;;;;;;4999832;28;19909;-81
2023/06/17 05:22:12;;;;;;;;;;;20.70;99.90;;;;;;5008987;28;19918;-81
2023/06/17 05:24:38;;;;;;;;;;;20.40;99.90;;;;;;5009275;28;19932;-83
2023/06/17 05:27:08;;;;;;;;;;;20.00;99.90;;;;;;4997055;28;19910;-83
2023/06/17 05:29:34;;;;;;;;;;;20.10;99.90;;;;;;5008031;28;19909;-80
2023/06/17 05:32:01;;;;;;;;;;;20.30;99.90;;;;;;5001896;28;19917;-83
2023/06/17 05:34:28;;;;;;;;;;;20.00;99.90;;;;;;5007260;28;20406;-81
2023/06/17 05:36:54;;;;;;;;;;;20.00;99.90;;;;;;4994603;28;20000;-83
2023/06/17 05:39:21;;;;;;;;;;;19.80;99.90;;;;;;4997336;28;20266;-82
2023/06/17 05:41:47;;;;;;;;;;;19.80;99.90;;;;;;5005293;28;19909;-84
2023/06/17 05:44:16;;;;;;;;;;;19.60;99.90;;;;;;5003091;28;19913;-83
2023/06/17 05:46:43;;;;;;;;;;;19.50;99.90;;;;;;5012411;28;20012;-84
2023/06/17 05:49:09;;;;;;;;;;;19.50;99.90;;;;;;4986068;28;20430;-84
2023/06/17 05:51:35;;;;;;;;;;;19.60;99.90;;;;;;4998960;28;19917;-83
2023/06/17 05:54:02;;;;;;;;;;;19.60;99.90;;;;;;5002092;28;19917;-84
2023/06/17 05:56:28;;;;;;;;;;;19.50;99.90;;;;;;5015463;28;19921;-83
2023/06/17 05:58:55;;;;;;;;;;;19.40;99.90;;;;;;4991973;28;19910;-82
2023/06/17 06:01:36;;;;;;;;;;;19.60;99.90;;;;;;5009494;28;19916;-81
2023/06/17 06:04:02;;;;;;;;;;;19.60;99.90;;;;;;5000633;28;19913;-83
2023/06/17 06:06:29;;;;;;;;;;;19.50;99.90;;;;;;5012019;28;19913;-83
2023/06/17 06:08:55;;;;;;;;;;;20.10;99.90;;;;;;4993607;28;20282;-82
2023/06/17 06:11:21;;;;;;;;;;;20.50;99.90;;;;;;5005851;28;19947;-83
2023/06/17 06:13:48;;;;;;;;;;;20.90;99.90;;;;;;5010084;28;19985;-83
2023/06/17 06:16:14;;;;;;;;;;;21.40;99.90;;;;;;5010756;28;20286;-80
2023/06/17 06:18:40;;;;;;;;;;;21.10;99.90;;;;;;5013583;28;19909;-79
2023/06/17 06:21:06;;;;;;;;;;;20.50;99.90;;;;;;4996933;28;20283;-81
2023/06/17 06:23:33;;;;;;;;;;;20.40;99.90;;;;;;4993222;28;19913;-79
2023/06/17 06:26:00;;;;;;;;;;;20.50;99.90;;;;;;4988511;28;19910;-85
2023/06/17 06:28:26;;;;;;;;;;;20.70;99.90;;;;;;5007560;28;20282;-80
2023/06/17 06:30:52;;;;;;;;;;;21.10;99.90;;;;;;4988599;28;20296;-80
2023/06/17 06:33:18;;;;;;;;;;;21.60;99.90;;;;;;5004426;28;20282;-79
2023/06/17 06:35:44;;;;;;;;;;;22.40;99.90;;;;;;5011910;28;19925;-80
2023/06/17 06:38:15;;;;;;;;;;;22.50;99.90;;;;;;5003120;28;20303;-80
2023/06/17 06:40:44;;;;;;;;;;;22.80;99.90;;;;;;5006154;28;19941;-80
2023/06/17 06:43:11;;;;;;;;;;;22.00;99.90;;;;;;5008019;28;19913;-80
2023/06/17 06:45:46;;;;;;;;;;;22.60;99.90;;;;;;5013917;28;19917;-81
2023/06/17 06:48:12;;;;;;;;;;;23.20;99.90;;;;;;5001982;28;20370;-81
2023/06/17 06:50:38;;;;;;;;;;;24.00;99.90;;;;;;4996010;28;20262;-78
2023/06/17 06:53:05;;;;;;;;;;;24.10;99.90;;;;;;5019537;28;19910;-78
2023/06/17 06:55:31;;;;;;;;;;;24.30;99.90;;;;;;4996028;28;19913;-77
2023/06/17 06:57:58;;;;;;;;;;;24.00;99.90;;;;;;5011154;28;19910;-78
2023/06/17 07:00:24;;;;;;;;;;;23.80;99.90;;;;;;4991878;28;19914;-78
2023/06/17 07:02:50;;;;;;;;;;;23.90;99.90;;;;;;5006568;28;19917;-77
2023/06/17 07:05:20;;;;;;;;;;;23.30;99.90;;;;;;5004677;28;20372;-78
2023/06/17 07:07:50;;;;;;;;;;;23.10;99.90;;;;;;5014162;28;20009;-78
2023/06/17 07:10:16;;;;;;;;;;;23.50;99.90;;;;;;5012140;28;20286;-78
2023/06/17 07:12:42;;;;;;;;;;;24.10;99.90;;;;;;5010399;28;19917;-78
2023/06/17 07:15:09;;;;;;;;;;;24.30;99.90;;;;;;5013265;28;20283;-80
2023/06/17 07:17:36;;;;;;;;;;;24.30;99.90;;;;;;5013363;28;20282;-79
2023/06/17 07:20:05;;;;;;;;;;;24.50;99.90;;;;;;4999919;28;19913;-79
2023/06/17 07:22:32;;;;;;;;;;;25.10;99.90;;;;;;5012431;28;19910;-78
2023/06/17 07:24:58;;;;;;;;;;;25.00;99.90;;;;;;5010801;28;19916;-78
2023/06/17 07:27:24;;;;;;;;;;;23.60;99.90;;;;;;5015580;28;19913;-78
2023/06/17 07:29:50;;;;;;;;;;;23.90;99.90;;;;;;4996915;28;19917;-78
2023/06/17 07:32:17;;;;;;;;;;;24.10;99.90;;;;;;5010790;28;19917;-77
2023/06/17 07:34:43;;;;;;;;;;;24.50;99.90;;;;;;4997460;28;19914;-79
2023/06/17 07:37:09;;;;;;;;;;;24.60;99.90;;;;;;5009248;28;20371;-79
2023/06/17 07:39:35;;;;;;;;;;;24.80;99.90;;;;;;5011302;28;19910;-77
2023/06/17 07:42:01;;;;;;;;;;;24.30;99.90;;;;;;5015424;28;20255;-85
2023/06/17 07:44:27;;;;;;;;;;;24.30;99.90;;;;;;4999421;28;19916;-78
2023/06/17 07:46:54;;;;;;;;;;;24.30;99.90;;;;;;5024198;28;19917;-80
2023/06/17 07:49:20;;;;;;;;;;;24.00;99.90;;;;;;5006307;28;19913;-78
2023/06/17 07:51:46;;;;;;;;;;;23.80;99.90;;;;;;5011231;28;19916;-77
2023/06/17 07:54:12;;;;;;;;;;;24.40;99.90;;;;;;5002901;28;19921;-79
2023/06/17 07:56:38;;;;;;;;;;;25.30;99.90;;;;;;4996938;28;19960;-80
2023/06/17 07:59:04;;;;;;;;;;;25.70;99.90;;;;;;5002997;28;19909;-79
2023/06/17 08:01:30;;;;;;;;;;;25.20;99.90;;;;;;4998366;28;20271;-79
2023/06/17 08:03:56;;;;;;;;;;;25.20;99.90;;;;;;5010775;28;19956;-77
2023/06/17 08:06:22;;;;;;;;;;;25.00;99.90;;;;;;4995089;28;20445;-78
2023/06/17 08:08:48;;;;;;;;;;;24.60;99.90;;;;;;4995181;28;19925;-78
2023/06/17 08:11:14;;;;;;;;;;;24.90;99.90;;;;;;4997559;28;19910;-79
2023/06/17 08:13:40;;;;;;;;;;;25.00;99.90;;;;;;4995126;28;19921;-78
2023/06/17 08:16:06;;;;;;;;;;;24.80;99.90;;;;;;4993078;28;19956;-78
2023/06/17 08:18:31;;;;;;;;;;;25.20;99.90;;;;;;4992926;28;19913;-78
2023/06/17 08:20:58;;;;;;;;;;;26.00;99.90;;;;;;4994077;28;20441;-77
2023/06/17 08:23:23;;;;;;;;;;;25.70;99.90;;;;;;4995735;28;19918;-78
2023/06/17 08:25:49;;;;;;;;;;;25.30;99.90;;;;;;4994209;28;20012;-78
2023/06/17 08:28:15;;;;;;;;;;;25.80;99.90;;;;;;4992637;28;19912;-79
2023/06/17 08:30:41;;;;;;;;;;;26.10;99.90;;;;;;4996436;28;19949;-78
2023/06/17 08:33:08;;;;;;;;;;;26.10;99.70;;;;;;5000645;28;20286;-80
2023/06/17 08:35:34;;;;;;;;;;;25.80;99.90;;;;;;4987775;28;20293;-79
2023/06/17 08:38:01;;;;;;;;;;;26.30;98.50;;;;;;5000130;28;19972;-79
2023/06/17 08:40:26;;;;;;;;;;;26.50;95.70;;;;;;5019541;28;20278;-79
2023/06/17 08:42:56;;;;;;;;;;;26.40;99.90;;;;;;5004864;28;20326;-80
2023/06/17 08:45:23;;;;;;;;;;;26.70;98.50;;;;;;5019445;28;20362;-79
2023/06/17 08:47:49;;;;;;;;;;;27.40;73.90;;;;;;5000118;28;19914;-79
2023/06/17 08:50:15;;;;;;;;;;;26.90;73.00;;;;;;4992811;28;19910;-79
2023/06/17 08:52:42;;;;;;;;;;;26.40;88.10;;;;;;4995608;28;19913;-79
2023/06/17 08:55:08;;;;;;;;;;;26.50;83.90;;;;;;4994072;28;19933;-80
2023/06/17 08:57:35;;;;;;;;;;;26.80;91.50;;;;;;4991662;28;20370;-80
2023/06/17 09:00:00;;;;;;;;;;;27.50;71.80;;;;;;4992193;28;19909;-79
2023/06/17 09:02:28;;;;;;;;;;;28.60;52.60;;;;;;4994342;28;20416;-79
2023/06/17 09:04:54;;;;;;;;;;;27.80;49.70;;;;;;4997156;28;19909;-79
2023/06/17 09:07:21;;;;;;;;;;;27.00;50.70;;;;;;4997114;28;19913;-78
2023/06/17 09:09:52;;;;;;;;;;;26.90;59.60;;;;;;4994606;28;20354;-79
2023/06/17 09:12:18;;;;;;;;;;;27.60;56.40;;;;;;4993712;28;20405;-79
2023/06/17 09:14:44;;;;;;;;;;;28.00;56.10;;;;;;5001000;28;19922;-79
2023/06/17 09:17:11;;;;;;;;;;;28.70;36.20;;;;;;5003815;28;19916;-79
2023/06/17 09:19:40;;;;;;;;;;;28.50;22.00;;;;;;4993855;28;19906;-78
2023/06/17 09:22:06;;;;;;;;;;;27.60;25.30;;;;;;4998929;28;19932;-79
2023/06/17 09:24:32;;;;;;;;;;;27.00;36.80;;;;;;4990962;28;19921;-76
2023/06/17 09:26:59;;;;;;;;;;;27.30;38.00;;;;;;5007024;28;19964;-79
2023/06/17 09:29:29;;;;;;;;;;;27.70;41.20;;;;;;5010873;28;19906;-78
2023/06/17 09:31:55;;;;;;;;;;;28.10;21.60;;;;;;4995509;28;19910;-76
2023/06/17 09:34:22;;;;;;;;;;;27.90;27.00;;;;;;4996917;28;19918;-78
2023/06/17 09:36:59;;;;;;;;;;;27.70;20.90;;;;;;4997428;28;19926;-78
2023/06/17 09:39:30;;;;;;;;;;;27.90;15.00;;;;;;4989142;28;19941;-79
2023/06/17 09:41:56;;;;;;;;;;;27.80;6.20;;;;;;5014970;28;19910;-81
2023/06/17 09:44:23;;;;;;;;;;;28.80;4.80;;;;;;5002493;28;19913;-78
2023/06/17 09:46:50;;;;;;;;;;;28.90;1.60;;;;;;5001572;28;19916;-79
2023/06/17 09:49:23;;;;;;;;;;;28.40;1.40;;;;;;5002338;28;19910;-79
2023/06/17 09:51:51;;;;;;;;;;;27.70;4.50;;;;;;5000487;28;19910;-78
2023/06/17 09:54:21;;;;;;;;;;;28.30;6.10;;;;;;4990660;28;20369;-76
2023/06/17 09:56:47;;;;;;;;;;;28.90;1.40;;;;;;4993609;28;19913;-77
2023/06/17 09:59:14;;;;;;;;;;;28.90;1.00;;;;;;4995290;28;19920;-79
2023/06/17 10:01:40;;;;;;;;;;;28.30;1.00;;;;;;4990430;28;19921;-76
2023/06/17 10:04:09;;;;;;;;;;;28.80;1.00;;;;;;5000027;28;19909;-78
2023/06/17 10:06:39;;;;;;;;;;;28.50;1.00;;;;;;4997551;28;19913;-81
2023/06/17 10:09:06;;;;;;;;;;;28.60;1.00;;;;;;5004682;28;20412;-84
2023/06/17 10:11:33;;;;;;;;;;;28.80;1.00;;;;;;5001645;28;19920;-77
2023/06/17 10:14:01;;;;;;;;;;;28.30;1.00;;;;;;4993417;28;19920;-77
2023/06/17 10:16:31;;;;;;;;;;;27.90;1.00;;;;;;4992077;28;19910;-75
2023/06/17 10:18:59;;;;;;;;;;;27.80;1.00;;;;;;4993756;28;20367;-76
2023/06/17 10:21:26;;;;;;;;;;;27.80;1.00;;;;;;4990451;28;20279;-77
2023/06/17 10:23:53;;;;;;;;;;;28.00;1.00;;;;;;4996507;28;20266;-76
2023/06/17 10:26:21;;;;;;;;;;;28.40;1.00;;;;;;4990511;28;20021;-80
2023/06/17 10:28:53;;;;;;;;;;;29.30;1.00;;;;;;4995267;28;19910;-75
2023/06/17 10:31:21;;;;;;;;;;;29.20;1.00;;;;;;4994885;28;19909;-76
2023/06/17 10:33:47;;;;;;;;;;;29.10;1.00;;;;;;4995741;28;19921;-75
2023/06/17 10:36:14;;;;;;;;;;;28.50;1.00;;;;;;4994876;28;19917;-76
2023/06/17 10:38:40;;;;;;;;;;;27.30;1.00;;;;;;4988187;28;19916;-76
2023/06/17 10:41:06;;;;;;;;;;;27.50;1.00;;;;;;4981430;28;19989;-75
2023/06/17 10:43:38;;;;;;;;;;;27.60;1.00;;;;;;4979213;28;19916;-76
2023/06/17 10:46:04;;;;;;;;;;;27.90;1.00;;;;;;4989363;28;19909;-76
2023/06/17 10:48:32;;;;;;;;;;;28.00;1.00;;;;;;5004801;28;20256;-75
2023/06/17 10:51:01;;;;;;;;;;;28.00;1.00;;;;;;4995650;28;20267;-74
2023/06/17 10:53:28;;;;;;;;;;;27.70;1.00;;;;;;4999545;28;20351;-76
2023/06/17 10:55:56;;;;;;;;;;;27.30;1.00;;;;;;4998863;28;19906;-75
2023/06/17 10:58:22;;;;;;;;;;;27.40;1.00;;;;;;4997966;28;19913;-77
2023/06/17 11:00:58;;;;;;;;;;;27.50;1.00;;;;;;4999695;28;19909;-74
2023/06/17 11:03:24;;;;;;;;;;;27.30;1.00;;;;;;4989703;28;19910;-76
2023/06/17 11:05:52;;;;;;;;;;;27.60;1.00;;;;;;4991673;28;19914;-75
2023/06/17 11:08:18;;;;;;;;;;;27.60;1.00;;;;;;4989646;28;19909;-76
2023/06/17 11:10:44;;;;;;;;;;;27.80;1.00;;;;;;4995264;28;20413;-74
2023/06/17 11:13:12;;;;;;;;;;;28.10;1.00;;;;;;4996456;28;20363;-75
2023/06/17 11:15:38;;;;;;;;;;;28.10;1.00;;;;;;5005210;28;19934;-75
2023/06/17 11:18:05;;;;;;;;;;;28.40;1.00;;;;;;4991496;28;19988;-76
2023/06/17 11:20:35;;;;;;;;;;;28.40;1.00;;;;;;4990331;28;19910;-75
2023/06/17 11:23:04;;;;;;;;;;;28.50;1.00;;;;;;4987126;28;19917;-74
2023/06/17 11:25:31;;;;;;;;;;;28.80;1.00;;;;;;4986191;28;19932;-76
2023/06/17 11:27:57;;;;;;;;;;;29.10;1.00;;;;;;4982372;28;19913;-82
2023/06/17 11:30:25;;;;;;;;;;;28.80;1.00;;;;;;4977931;28;20330;-77
2023/06/17 11:32:51;;;;;;;;;;;28.40;1.00;;;;;;4973278;28;20371;-75
2023/06/17 11:35:17;;;;;;;;;;;28.10;1.00;;;;;;4982910;28;19921;-75
2023/06/17 11:37:46;;;;;;;;;;;28.20;1.00;;;;;;4986470;28;19917;-80
2023/06/17 11:40:12;;;;;;;;;;;28.10;1.00;;;;;;4991765;28;19919;-85
2023/06/17 11:42:39;;;;;;;;;;;28.30;1.00;;;;;;4993954;28;19910;-75
2023/06/17 11:45:05;;;;;;;;;;;28.00;1.00;;;;;;4990098;28;19916;-74
2023/06/17 11:47:32;;;;;;;;;;;28.10;1.00;;;;;;4990549;28;20367;-79
2023/06/17 11:49:58;;;;;;;;;;;28.00;1.00;;;;;;4996221;28;19925;-82
2023/06/17 11:52:24;;;;;;;;;;;28.30;1.00;;;;;;4993526;28;19910;-85
2023/06/17 11:54:50;;;;;;;;;;;28.70;1.00;;;;;;4989919;28;19926;-87
2023/06/17 11:57:17;;;;;;;;;;;28.70;1.00;;;;;;4993990;28;19910;-86
2023/06/17 11:59:43;;;;;;;;;;;28.70;1.00;;;;;;4995935;28;20018;-90
2023/06/17 12:02:10;;;;;;;;;;;28.90;1.00;;;;;;5011427;28;19916;-86
2023/06/17 12:04:36;;;;;;;;;;;28.90;1.00;;;;;;4988539;28;20125;-89
2023/06/17 12:07:06;;;;;;;;;;;28.70;1.00;;;;;;5003118;28;19918;-85
2023/06/17 12:09:48;;;;;;;;;;;28.50;1.00;;;;;;5012445;28;19909;-84
2023/06/17 12:12:24;;;;;;;;;;;28.90;1.00;;;;;;4997793;28;20371;-86
2023/06/17 12:14:50;;;;;;;;;;;29.20;1.00;;;;;;5008797;28;20354;-85
2023/06/17 12:17:19;;;;;;;;;;;29.20;1.00;;;;;;5010268;28;19953;-86
2023/06/17 12:19:47;;;;;;;;;;;28.90;1.00;;;;;;4994970;28;19932;-89
2023/06/17 12:22:14;;;;;;;;;;;28.70;1.00;;;;;;4995983;28;19917;-85
2023/06/17 12:24:40;;;;;;;;;;;28.80;1.00;;;;;;5007711;28;19906;-86
2023/06/17 12:27:08;;;;;;;;;;;28.70;1.00;;;;;;4996068;28;20032;-89
2023/06/17 12:29:34;;;;;;;;;;;28.50;1.00;;;;;;4992573;28;19914;-85
2023/06/17 12:32:00;;;;;;;;;;;28.50;1.00;;;;;;4992767;28;19914;-83
2023/06/17 12:34:26;;;;;;;;;;;28.50;1.00;;;;;;5009687;28;19921;-88
2023/06/17 12:36:53;;;;;;;;;;;28.30;1.00;;;;;;4997246;28;19926;-89
2023/06/17 12:39:19;;;;;;;;;;;28.40;1.00;;;;;;4994042;28;19910;-90
2023/06/17 12:41:45;;;;;;;;;;;28.10;1.00;;;;;;4993669;28;19925;-85
2023/06/17 12:44:11;;;;;;;;;;;28.20;1.00;;;;;;4994656;28;19914;-91
2023/06/17 12:46:38;;;;;;;;;;;28.30;1.00;;;;;;5007560;28;19932;-88
2023/06/17 12:49:05;;;;;;;;;;;28.50;1.00;;;;;;4994889;28;20304;-87
2023/06/17 12:51:32;;;;;;;;;;;28.50;1.00;;;;;;5010322;28;19917;-89
2023/06/17 12:53:58;;;;;;;;;;;28.80;1.00;;;;;;4982191;28;20278;-86
2023/06/17 12:56:24;;;;;;;;;;;28.90;1.00;;;;;;4996615;28;19953;-85
2023/06/17 12:58:50;;;;;;;;;;;28.70;1.00;;;;;;4987259;28;19906;-83
2023/06/17 13:01:16;;;;;;;;;;;28.60;1.00;;;;;;4998361;28;19909;-90
2023/06/17 13:03:42;;;;;;;;;;;28.90;1.00;;;;;;5014690;28;20247;-86
2023/06/17 13:06:08;;;;;;;;;;;28.90;1.00;;;;;;4986720;28;19914;-87
2023/06/17 13:08:34;;;;;;;;;;;28.50;1.00;;;;;;5011762;28;19925;-81
2023/06/17 13:11:00;;;;;;;;;;;28.40;1.00;;;;;;4998476;28;19917;-85
2023/06/17 13:13:27;;;;;;;;;;;28.20;1.00;;;;;;4995291;28;20366;-84
2023/06/17 13:15:53;;;;;;;;;;;28.60;1.00;;;;;;4990905;28;19922;-83
2023/06/17 13:18:19;;;;;;;;;;;28.70;1.00;;;;;;4998635;28;19909;-82
2023/06/17 13:20:45;;;;;;;;;;;28.90;1.00;;;;;;5000203;28;19956;-86
2023/06/17 13:23:10;;;;;;;;;;;28.40;1.00;;;;;;5000499;28;19909;-83
2023/06/17 13:25:36;;;;;;;;;;;28.60;1.00;;;;;;5004145;28;20197;-88
2023/06/17 13:28:02;;;;;;;;;;;29.10;1.00;;;;;;4996596;28;19957;-86
2023/06/17 13:30:28;;;;;;;;;;;29.30;1.00;;;;;;4981572;28;19917;-83
2023/06/17 13:32:54;;;;;;;;;;;29.70;1.00;;;;;;4994084;28;20378;-84
2023/06/17 13:35:21;;;;;;;;;;;29.50;1.00;;;;;;4992544;28;19928;-87
2023/06/17 13:37:47;;;;;;;;;;;29.40;1.00;;;;;;5009818;28;19925;-86
2023/06/17 13:40:13;;;;;;;;;;;29.60;1.00;;;;;;4998194;28;19913;-83
2023/06/17 13:42:39;;;;;;;;;;;29.70;1.00;;;;;;4998955;28;19905;-84
2023/06/17 13:45:05;;;;;;;;;;;29.70;1.00;;;;;;4983594;28;19957;-86
2023/06/17 13:47:32;;;;;;;;;;;29.60;1.00;;;;;;4999532;28;20265;-86
2023/06/17 13:49:58;;;;;;;;;;;29.70;1.00;;;;;;4998058;28;19909;-85
2023/06/17 13:52:25;;;;;;;;;;;29.80;1.00;;;;;;4986794;28;19906;-86
2023/06/17 13:54:51;;;;;;;;;;;29.70;1.00;;;;;;4992506;28;19925;-89
2023/06/17 13:57:17;;;;;;;;;;;29.70;1.00;;;;;;5000575;28;19921;-89
2023/06/17 13:59:43;;;;;;;;;;;29.00;1.00;;;;;;4978051;28;19917;-89
2023/06/17 14:02:09;;;;;;;;;;;29.10;1.00;;;;;;5009955;28;19910;-88
2023/06/17 14:04:35;;;;;;;;;;;29.70;1.00;;;;;;4989067;28;20374;-88
2023/06/17 14:07:01;;;;;;;;;;;30.00;1.00;;;;;;5004145;28;19980;-88
2023/06/17 14:09:27;;;;;;;;;;;30.20;1.00;;;;;;4997102;28;20852;-85
2023/06/17 14:11:52;;;;;;;;;;;30.10;1.00;;;;;;4988042;28;20311;-83
2023/06/17 14:14:18;;;;;;;;;;;29.90;1.00;;;;;;4993858;28;20386;-86
2023/06/17 14:16:44;;;;;;;;;;;29.70;1.00;;;;;;4995381;28;20005;-87
2023/06/17 14:19:10;;;;;;;;;;;29.90;1.00;;;;;;4992575;28;20000;-85
2023/06/17 14:21:36;;;;;;;;;;;29.90;1.00;;;;;;4991865;28;19906;-88